Time;durP1;ratioP1;P1;durP2;ratioP2;P2;SDS_P1;SDS_P2;PMS_P1;PMS_P2;Temp;Humidity;BMP_temperature;BMP_pressure;BME280_temperature;BME280_humidity;BME280_pressure;Samples;Min_cycle;Max_cycle;Signal;HPM_P1;HPM_P2
2023/12/29 00:01:59;;;;;;;;;;;9.30;99.90;;;;;;5069432;28;19964;-90
2023/12/29 00:04:28;;;;;;;;;;;9.30;99.90;;;;;;5052093;28;19981;-92
2023/12/29 00:06:53;;;;;;;;;;;9.40;99.90;;;;;;5026873;28;19925;-89
2023/12/29 00:09:22;;;;;;;;;;;9.30;99.90;;;;;;5037099;28;19977;-91
2023/12/29 00:11:49;;;;;;;;;;;9.30;99.90;;;;;;5068546;28;19943;-90
2023/12/29 00:14:15;;;;;;;;;;;9.40;99.90;;;;;;5065383;28;19920;-90
2023/12/29 00:16:40;;;;;;;;;;;9.00;99.90;;;;;;5060183;28;20024;-88
2023/12/29 00:19:06;;;;;;;;;;;9.40;99.90;;;;;;5039411;28;19956;-90
2023/12/29 00:21:32;;;;;;;;;;;9.40;99.90;;;;;;5056235;28;20007;-88
2023/12/29 00:23:57;;;;;;;;;;;9.30;99.90;;;;;;5037274;28;19921;-89
2023/12/29 00:26:23;;;;;;;;;;;9.50;99.90;;;;;;5038795;28;19993;-91
2023/12/29 00:28:49;;;;;;;;;;;9.50;99.90;;;;;;5067145;28;19920;-90
2023/12/29 00:31:17;;;;;;;;;;;9.40;99.90;;;;;;5072806;28;19956;-92
2023/12/29 00:33:43;;;;;;;;;;;9.50;99.90;;;;;;5025247;28;20011;-93
2023/12/29 00:36:16;;;;;;;;;;;9.50;99.90;;;;;;5040829;28;20424;-90
2023/12/29 00:38:42;;;;;;;;;;;9.50;99.90;;;;;;5040492;28;19971;-92
2023/12/29 00:41:08;;;;;;;;;;;9.40;99.90;;;;;;5042096;28;19920;-91
2023/12/29 00:43:33;;;;;;;;;;;9.40;99.90;;;;;;5040142;28;19920;-89
2023/12/29 00:46:01;;;;;;;;;;;9.30;99.90;;;;;;5055788;28;19969;-93
2023/12/29 00:48:26;;;;;;;;;;;9.20;99.90;;;;;;5056967;28;20459;-91
2023/12/29 00:50:52;;;;;;;;;;;9.30;99.90;;;;;;5040614;28;19920;-93
2023/12/29 00:53:17;;;;;;;;;;;9.30;99.90;;;;;;5069050;28;19920;-91
2023/12/29 00:55:43;;;;;;;;;;;9.30;99.90;;;;;;5062614;28;19981;-93
2023/12/29 00:58:09;;;;;;;;;;;9.20;99.90;;;;;;5036660;28;19920;-91
2023/12/29 01:00:34;;;;;;;;;;;9.20;99.90;;;;;;5083413;28;20041;-88
2023/12/29 01:03:00;;;;;;;;;;;9.20;99.90;;;;;;5031449;28;19924;-91
2023/12/29 01:05:27;;;;;;;;;;;9.10;99.90;;;;;;5054460;28;19931;-89
2023/12/29 01:07:53;;;;;;;;;;;9.10;99.90;;;;;;5046441;28;19965;-91
2023/12/29 01:10:18;;;;;;;;;;;9.10;99.90;;;;;;5061408;28;20377;-89
2023/12/29 01:12:44;;;;;;;;;;;9.20;99.90;;;;;;5046543;28;19931;-87
2023/12/29 01:15:10;;;;;;;;;;;9.20;99.90;;;;;;5063405;28;19928;-88
2023/12/29 01:17:35;;;;;;;;;;;9.10;99.90;;;;;;5073498;28;19920;-91
2023/12/29 01:20:03;;;;;;;;;;;9.10;99.90;;;;;;5064144;28;20338;-90
2023/12/29 01:22:28;;;;;;;;;;;9.10;99.90;;;;;;5040956;28;19933;-91
2023/12/29 01:24:54;;;;;;;;;;;9.10;99.90;;;;;;5081504;28;19925;-90
2023/12/29 01:27:20;;;;;;;;;;;9.00;99.90;;;;;;5065356;28;20717;-92
2023/12/29 01:29:45;;;;;;;;;;;7.70;99.90;;;;;;5092645;28;19931;-90
2023/12/29 01:32:11;;;;;;;;;;;9.00;99.90;;;;;;5069040;28;19921;-90
2023/12/29 01:34:37;;;;;;;;;;;9.00;99.90;;;;;;5052369;28;19924;-92
2023/12/29 01:37:03;;;;;;;;;;;9.00;99.90;;;;;;5054274;28;20348;-92
2023/12/29 01:39:29;;;;;;;;;;;9.00;99.90;;;;;;5047985;28;20414;-90
2023/12/29 01:41:55;;;;;;;;;;;9.00;99.90;;;;;;5086213;28;20347;-89
2023/12/29 01:44:21;;;;;;;;;;;9.00;99.90;;;;;;5074894;28;19988;-89
2023/12/29 01:46:48;;;;;;;;;;;8.90;99.90;;;;;;5049446;28;20275;-87
2023/12/29 01:49:18;;;;;;;;;;;9.00;99.90;;;;;;5056594;28;20359;-87
2023/12/29 01:51:44;;;;;;;;;;;9.00;99.90;;;;;;5055987;28;19925;-90
2023/12/29 01:54:11;;;;;;;;;;;9.10;99.90;;;;;;5072644;28;19970;-93
2023/12/29 01:56:37;;;;;;;;;;;9.10;99.90;;;;;;5053263;28;19929;-90
2023/12/29 01:59:03;;;;;;;;;;;9.10;99.90;;;;;;5049972;28;20015;-93
2023/12/29 02:01:29;;;;;;;;;;;9.10;99.90;;;;;;5053669;28;19920;-89
2023/12/29 02:03:55;;;;;;;;;;;9.00;99.90;;;;;;5067228;28;19920;-91
2023/12/29 02:06:21;;;;;;;;;;;9.10;99.90;;;;;;5040558;28;19928;-89
2023/12/29 02:08:47;;;;;;;;;;;9.00;99.90;;;;;;5071889;28;19924;-90
2023/12/29 02:11:13;;;;;;;;;;;9.00;99.90;;;;;;5037437;28;19932;-91
2023/12/29 02:13:39;;;;;;;;;;;8.90;99.90;;;;;;5065449;28;19975;-89
2023/12/29 02:16:12;;;;;;;;;;;8.90;99.90;;;;;;5051311;28;20346;-89
2023/12/29 02:18:38;;;;;;;;;;;8.80;99.90;;;;;;5052739;28;19921;-90
2023/12/29 02:21:04;;;;;;;;;;;8.80;99.90;;;;;;5034640;28;19920;-90
2023/12/29 02:23:30;;;;;;;;;;;8.70;99.90;;;;;;5049959;28;20468;-88
2023/12/29 02:25:58;;;;;;;;;;;8.70;99.90;;;;;;5045410;28;19928;-91
2023/12/29 02:28:24;;;;;;;;;;;8.70;99.90;;;;;;5048778;28;20047;-92
2023/12/29 02:31:14;;;;;;;;;;;8.70;99.90;;;;;;5066297;28;19931;-91
2023/12/29 02:33:40;;;;;;;;;;;8.60;99.90;;;;;;5054061;28;19920;-88
2023/12/29 02:36:06;;;;;;;;;;;8.60;99.90;;;;;;5072209;28;19998;-92
2023/12/29 02:38:33;;;;;;;;;;;8.50;99.90;;;;;;5045652;28;20472;-91
2023/12/29 02:40:59;;;;;;;;;;;8.60;99.90;;;;;;5039573;28;19921;-90
2023/12/29 02:43:25;;;;;;;;;;;8.60;99.90;;;;;;5053148;28;19932;-90
2023/12/29 02:45:51;;;;;;;;;;;8.50;99.90;;;;;;5056296;28;20056;-91
2023/12/29 02:48:16;;;;;;;;;;;8.00;99.90;;;;;;5049988;28;19936;-93
2023/12/29 02:50:42;;;;;;;;;;;8.40;99.90;;;;;;5055071;28;19956;-92
2023/12/29 02:53:08;;;;;;;;;;;8.40;99.90;;;;;;5014320;28;19935;-89
2023/12/29 02:55:33;;;;;;;;;;;8.30;99.90;;;;;;5064331;28;19925;-92
2023/12/29 02:57:59;;;;;;;;;;;8.30;99.90;;;;;;5045923;28;19920;-92
2023/12/29 03:00:25;;;;;;;;;;;8.20;99.90;;;;;;5039924;28;19921;-91
2023/12/29 03:02:50;;;;;;;;;;;8.20;99.90;;;;;;5058180;28;20511;-91
2023/12/29 03:05:16;;;;;;;;;;;8.20;99.90;;;;;;5033023;28;19967;-89
2023/12/29 03:07:41;;;;;;;;;;;8.30;99.90;;;;;;5052242;28;20281;-90
2023/12/29 03:10:07;;;;;;;;;;;8.30;99.90;;;;;;5025951;28;19920;-92
2023/12/29 03:12:33;;;;;;;;;;;8.30;99.90;;;;;;5039351;28;19986;-92
2023/12/29 03:14:59;;;;;;;;;;;8.30;99.90;;;;;;5063912;28;19925;-93
2023/12/29 03:17:24;;;;;;;;;;;8.30;99.90;;;;;;5062990;28;20270;-90
2023/12/29 03:19:50;;;;;;;;;;;8.30;99.90;;;;;;5041719;28;19966;-91
2023/12/29 03:22:16;;;;;;;;;;;8.30;99.90;;;;;;5026336;28;19928;-92
2023/12/29 03:24:44;;;;;;;;;;;8.30;99.90;;;;;;5065927;28;20069;-89
2023/12/29 03:27:10;;;;;;;;;;;8.40;99.90;;;;;;5040853;28;19936;-89
2023/12/29 03:29:36;;;;;;;;;;;8.40;99.90;;;;;;5038874;28;19920;-87
2023/12/29 03:32:02;;;;;;;;;;;8.40;99.90;;;;;;5045935;28;19920;-89
2023/12/29 03:34:28;;;;;;;;;;;8.50;99.90;;;;;;5042309;28;19950;-91
2023/12/29 03:36:53;;;;;;;;;;;8.50;99.90;;;;;;5023728;28;19935;-92
2023/12/29 03:39:19;;;;;;;;;;;8.60;99.90;;;;;;5047322;28;20000;-93
2023/12/29 03:41:45;;;;;;;;;;;8.60;99.90;;;;;;5036812;28;19986;-90
2023/12/29 03:44:10;;;;;;;;;;;8.60;99.90;;;;;;5037092;28;19935;-89
2023/12/29 03:46:36;;;;;;;;;;;8.70;99.90;;;;;;5021371;28;19924;-91
2023/12/29 03:49:01;;;;;;;;;;;8.80;99.90;;;;;;5036588;28;19927;-94
2023/12/29 03:51:42;;;;;;;;;;;8.70;99.90;;;;;;5122563;27;19961;-93
2023/12/29 03:54:08;;;;;;;;;;;8.70;99.90;;;;;;5141444;27;19923;-92
2023/12/29 03:56:34;;;;;;;;;;;8.80;99.90;;;;;;5100374;28;19946;-91
2023/12/29 03:58:59;;;;;;;;;;;8.70;99.90;;;;;;5113110;27;19919;-92
2023/12/29 04:01:25;;;;;;;;;;;8.70;99.90;;;;;;5092903;28;19974;-91
2023/12/29 04:03:50;;;;;;;;;;;8.70;99.90;;;;;;5128556;27;19927;-91
2023/12/29 04:06:16;;;;;;;;;;;8.70;99.90;;;;;;5135916;27;19928;-90
2023/12/29 04:08:42;;;;;;;;;;;8.70;99.90;;;;;;5114432;27;19955;-92
2023/12/29 04:11:07;;;;;;;;;;;8.70;99.90;;;;;;5095524;28;20269;-94
2023/12/29 04:13:33;;;;;;;;;;;8.70;99.90;;;;;;5091143;28;19920;-90
2023/12/29 04:15:59;;;;;;;;;;;8.70;99.90;;;;;;5091827;28;20357;-92
2023/12/29 04:18:24;;;;;;;;;;;8.70;99.90;;;;;;5103375;28;19929;-92
2023/12/29 04:20:50;;;;;;;;;;;8.70;99.90;;;;;;5108258;27;19931;-92
2023/12/29 04:23:16;;;;;;;;;;;8.70;99.90;;;;;;5094890;28;19931;-93
2023/12/29 04:25:42;;;;;;;;;;;8.70;99.90;;;;;;5102650;28;19920;-91
2023/12/29 04:28:08;;;;;;;;;;;8.60;99.90;;;;;;5115326;27;20010;-91
2023/12/29 04:30:34;;;;;;;;;;;8.70;99.90;;;;;;5119035;27;19924;-90
2023/12/29 04:32:59;;;;;;;;;;;8.70;99.90;;;;;;5116858;27;19923;-92
2023/12/29 04:35:25;;;;;;;;;;;8.70;99.90;;;;;;5121916;27;19957;-93
2023/12/29 04:37:51;;;;;;;;;;;8.70;99.90;;;;;;5138832;27;20239;-91
2023/12/29 04:40:17;;;;;;;;;;;8.80;99.90;;;;;;5158176;27;19963;-92
2023/12/29 04:42:42;;;;;;;;;;;8.80;99.90;;;;;;5090216;28;20341;-92
2023/12/29 04:45:08;;;;;;;;;;;8.70;99.90;;;;;;5101384;27;20019;-90
2023/12/29 04:47:34;;;;;;;;;;;8.80;99.90;;;;;;5093964;28;19963;-93
2023/12/29 04:49:59;;;;;;;;;;;8.70;99.90;;;;;;5113029;28;19989;-92
2023/12/29 04:52:25;;;;;;;;;;;8.70;99.90;;;;;;5087161;28;19920;-92
2023/12/29 04:54:51;;;;;;;;;;;8.60;99.90;;;;;;5115625;27;20388;-93
2023/12/29 04:57:17;;;;;;;;;;;8.70;99.90;;;;;;5108559;28;19923;-91
2023/12/29 04:59:42;;;;;;;;;;;8.60;99.90;;;;;;5093671;28;20420;-91
2023/12/29 05:02:08;;;;;;;;;;;8.60;99.90;;;;;;5085634;28;19920;-94
2023/12/29 05:04:34;;;;;;;;;;;8.40;99.90;;;;;;5080596;28;19924;-93
2023/12/29 05:06:59;;;;;;;;;;;8.60;99.90;;;;;;5077705;28;19920;-93
2023/12/29 05:09:25;;;;;;;;;;;8.70;99.90;;;;;;5068957;27;20345;-91
2023/12/29 05:11:50;;;;;;;;;;;8.70;99.90;;;;;;5081439;28;19949;-92
2023/12/29 05:14:16;;;;;;;;;;;8.70;99.90;;;;;;5091119;28;19924;-92
2023/12/29 05:16:42;;;;;;;;;;;8.60;99.90;;;;;;5095805;28;19920;-88
2023/12/29 05:19:07;;;;;;;;;;;8.60;99.90;;;;;;5082400;28;19965;-91
2023/12/29 05:21:33;;;;;;;;;;;8.60;99.90;;;;;;5083310;28;19955;-90
2023/12/29 05:23:59;;;;;;;;;;;8.70;99.90;;;;;;5090646;28;19969;-91
2023/12/29 05:26:25;;;;;;;;;;;8.70;99.90;;;;;;5094296;28;19920;-91
2023/12/29 05:28:50;;;;;;;;;;;8.70;99.90;;;;;;5092740;28;19927;-90
2023/12/29 05:31:16;;;;;;;;;;;8.60;99.90;;;;;;5118706;27;19935;-92
2023/12/29 05:33:42;;;;;;;;;;;8.70;99.90;;;;;;5081798;28;19920;-89
2023/12/29 05:36:09;;;;;;;;;;;8.60;99.90;;;;;;5085159;28;19920;-90
2023/12/29 05:38:35;;;;;;;;;;;8.70;99.90;;;;;;5102525;28;19981;-91
2023/12/29 05:41:02;;;;;;;;;;;8.70;99.90;;;;;;5087528;28;19958;-91
2023/12/29 05:43:28;;;;;;;;;;;8.70;99.90;;;;;;5098790;28;19920;-91
2023/12/29 05:45:53;;;;;;;;;;;8.70;99.90;;;;;;5121812;27;19993;-91
2023/12/29 05:48:19;;;;;;;;;;;8.70;99.90;;;;;;5082388;28;19924;-92
2023/12/29 05:50:45;;;;;;;;;;;8.70;99.90;;;;;;5122855;27;19931;-91
2023/12/29 05:53:10;;;;;;;;;;;8.70;99.90;;;;;;5070112;28;19926;-91
2023/12/29 05:55:36;;;;;;;;;;;8.70;99.90;;;;;;5093452;28;19924;-92
2023/12/29 05:58:01;;;;;;;;;;;8.70;99.90;;;;;;5111777;28;19926;-90
2023/12/29 06:00:27;;;;;;;;;;;7.90;99.90;;;;;;5075893;28;20470;-90
2023/12/29 06:02:53;;;;;;;;;;;8.70;99.90;;;;;;5094397;28;19923;-90
2023/12/29 06:05:18;;;;;;;;;;;8.70;99.90;;;;;;5089921;28;19931;-91
2023/12/29 06:07:44;;;;;;;;;;;8.70;99.90;;;;;;5088670;28;20235;-90
2023/12/29 06:10:11;;;;;;;;;;;8.70;99.90;;;;;;5105136;28;19988;-90
2023/12/29 06:12:37;;;;;;;;;;;8.70;99.90;;;;;;5080503;28;20403;-91
2023/12/29 06:15:03;;;;;;;;;;;7.90;99.90;;;;;;5077452;28;20042;-90
2023/12/29 06:17:28;;;;;;;;;;;8.80;99.90;;;;;;5078544;28;19928;-92
2023/12/29 06:19:54;;;;;;;;;;;8.80;99.90;;;;;;5099028;28;19928;-91
2023/12/29 06:22:19;;;;;;;;;;;8.80;99.90;;;;;;5081792;28;19959;-92
2023/12/29 06:24:45;;;;;;;;;;;8.80;99.90;;;;;;5073250;28;19920;-88
2023/12/29 06:27:11;;;;;;;;;;;8.70;99.90;;;;;;5105348;28;19919;-90
2023/12/29 06:29:37;;;;;;;;;;;8.70;99.90;;;;;;5087259;28;19930;-89
2023/12/29 06:32:04;;;;;;;;;;;8.70;99.90;;;;;;5078586;28;20384;-94
2023/12/29 06:34:29;;;;;;;;;;;8.70;99.90;;;;;;5084868;28;20046;-91
2023/12/29 06:36:55;;;;;;;;;;;8.60;99.90;;;;;;5074831;28;19971;-90
2023/12/29 06:39:21;;;;;;;;;;;8.60;99.90;;;;;;5100724;28;19954;-91
2023/12/29 06:41:46;;;;;;;;;;;8.60;99.90;;;;;;5097140;28;19927;-93
2023/12/29 06:44:12;;;;;;;;;;;8.50;99.90;;;;;;5074408;28;20428;-87
2023/12/29 06:46:38;;;;;;;;;;;8.60;99.90;;;;;;5073522;28;20538;-94
2023/12/29 06:49:04;;;;;;;;;;;8.50;99.90;;;;;;5092655;28;20027;-92
2023/12/29 06:51:30;;;;;;;;;;;8.50;99.90;;;;;;5080314;28;20376;-91
2023/12/29 06:53:55;;;;;;;;;;;8.40;99.90;;;;;;5128596;27;19931;-88
2023/12/29 06:56:21;;;;;;;;;;;8.50;99.90;;;;;;5080566;28;19920;-92
2023/12/29 06:58:46;;;;;;;;;;;8.40;99.90;;;;;;5080475;28;19940;-90
2023/12/29 07:01:12;;;;;;;;;;;8.30;99.90;;;;;;5091205;28;19920;-91
2023/12/29 07:03:38;;;;;;;;;;;8.30;99.90;;;;;;5090121;28;20288;-91
2023/12/29 07:06:04;;;;;;;;;;;8.30;99.90;;;;;;5091447;28;19931;-92
2023/12/29 07:08:29;;;;;;;;;;;8.30;99.90;;;;;;5095253;28;19942;-87
2023/12/29 07:10:55;;;;;;;;;;;8.30;99.90;;;;;;5094948;28;19924;-90
2023/12/29 07:13:20;;;;;;;;;;;8.20;99.90;;;;;;5085870;28;19919;-91
2023/12/29 07:15:46;;;;;;;;;;;8.20;99.90;;;;;;5085201;28;20001;-91
2023/12/29 07:18:12;;;;;;;;;;;8.20;99.90;;;;;;5084517;28;20114;-92
2023/12/29 07:20:38;;;;;;;;;;;8.20;99.90;;;;;;5074144;28;19931;-91
2023/12/29 07:23:03;;;;;;;;;;;8.20;99.90;;;;;;5082570;28;19939;-91
2023/12/29 07:25:29;;;;;;;;;;;8.20;99.90;;;;;;5076938;28;20377;-92
2023/12/29 07:27:55;;;;;;;;;;;8.10;99.90;;;;;;5085939;28;20023;-92
2023/12/29 07:30:20;;;;;;;;;;;8.10;99.90;;;;;;5082471;28;19981;-91
2023/12/29 07:32:46;;;;;;;;;;;8.10;99.90;;;;;;5103148;28;19920;-91
2023/12/29 07:35:15;;;;;;;;;;;8.20;99.90;;;;;;5069141;28;19920;-91
2023/12/29 07:37:40;;;;;;;;;;;8.20;99.90;;;;;;5094997;28;19927;-89
2023/12/29 07:40:07;;;;;;;;;;;8.30;99.90;;;;;;5103541;28;19977;-91
2023/12/29 07:42:33;;;;;;;;;;;8.30;99.90;;;;;;5076523;28;20037;-92
2023/12/29 07:44:59;;;;;;;;;;;8.30;99.90;;;;;;5098933;28;20019;-90
2023/12/29 07:47:26;;;;;;;;;;;8.30;99.90;;;;;;5076249;28;20034;-90
2023/12/29 07:49:51;;;;;;;;;;;8.30;99.90;;;;;;5083240;28;19927;-93
2023/12/29 07:52:17;;;;;;;;;;;8.20;99.90;;;;;;5097430;28;19974;-90
2023/12/29 07:54:43;;;;;;;;;;;8.20;99.90;;;;;;5072846;28;19920;-91
2023/12/29 07:57:08;;;;;;;;;;;8.30;99.90;;;;;;5068637;28;20288;-89
2023/12/29 07:59:34;;;;;;;;;;;8.20;99.90;;;;;;5095111;28;20389;-91
2023/12/29 08:02:00;;;;;;;;;;;8.20;99.90;;;;;;5078962;28;19920;-91
2023/12/29 08:04:26;;;;;;;;;;;8.20;99.90;;;;;;5103746;28;19928;-88
2023/12/29 08:06:51;;;;;;;;;;;8.20;99.90;;;;;;5121983;27;19924;-88
2023/12/29 08:09:17;;;;;;;;;;;8.10;99.90;;;;;;5073689;28;20028;-92
2023/12/29 08:11:43;;;;;;;;;;;8.10;99.90;;;;;;5087659;28;19934;-87
2023/12/29 08:14:08;;;;;;;;;;;8.10;99.90;;;;;;5074465;28;19931;-88
2023/12/29 08:16:39;;;;;;;;;;;8.10;99.90;;;;;;5073675;28;20300;-87
2023/12/29 08:19:04;;;;;;;;;;;8.20;99.90;;;;;;5098087;28;20391;-90
2023/12/29 08:21:30;;;;;;;;;;;8.20;99.90;;;;;;5075931;28;19934;-89
2023/12/29 08:23:55;;;;;;;;;;;8.30;99.90;;;;;;5103646;28;19928;-89
2023/12/29 08:26:21;;;;;;;;;;;8.20;99.90;;;;;;5096483;28;19974;-88
2023/12/29 08:28:47;;;;;;;;;;;8.20;99.90;;;;;;5072573;28;20218;-90
2023/12/29 08:31:12;;;;;;;;;;;8.30;99.90;;;;;;5103084;28;20358;-88
2023/12/29 08:33:38;;;;;;;;;;;8.30;99.90;;;;;;5082201;28;19973;-90
2023/12/29 08:36:04;;;;;;;;;;;8.30;99.90;;;;;;5070119;28;19949;-88
2023/12/29 08:38:31;;;;;;;;;;;8.30;99.90;;;;;;5083945;28;20023;-91
2023/12/29 08:40:56;;;;;;;;;;;8.30;99.90;;;;;;5090100;28;19928;-91
2023/12/29 08:43:22;;;;;;;;;;;8.30;99.90;;;;;;5091376;28;19931;-90
2023/12/29 08:45:48;;;;;;;;;;;8.20;99.90;;;;;;5080709;28;20341;-91
2023/12/29 08:48:13;;;;;;;;;;;8.20;99.90;;;;;;5074158;28;20119;-92
2023/12/29 08:50:39;;;;;;;;;;;8.20;99.90;;;;;;5117806;27;19924;-94
2023/12/29 08:53:05;;;;;;;;;;;8.30;99.90;;;;;;5099621;28;19920;-91
2023/12/29 08:55:31;;;;;;;;;;;8.30;99.90;;;;;;5118879;27;19993;-91
2023/12/29 08:57:57;;;;;;;;;;;8.30;99.90;;;;;;5096116;28;20495;-93
2023/12/29 09:00:22;;;;;;;;;;;8.30;99.90;;;;;;5094728;28;19962;-96
2023/12/29 09:02:48;;;;;;;;;;;8.30;99.90;;;;;;5083496;28;19959;-91
2023/12/29 09:05:14;;;;;;;;;;;8.30;99.90;;;;;;5083360;28;19935;-94
2023/12/29 09:07:39;;;;;;;;;;;8.30;99.90;;;;;;5074634;28;19920;-94
2023/12/29 09:10:08;;;;;;;;;;;8.30;99.90;;;;;;5141924;27;20161;-92
2023/12/29 09:12:34;;;;;;;;;;;8.30;99.90;;;;;;5078954;28;19919;-94
2023/12/29 09:14:59;;;;;;;;;;;8.30;99.90;;;;;;5113337;27;20059;-92
2023/12/29 09:17:25;;;;;;;;;;;8.30;99.90;;;;;;5075436;28;19919;-90
2023/12/29 09:19:51;;;;;;;;;;;8.40;99.90;;;;;;5092744;28;19920;-95
2023/12/29 09:22:16;;;;;;;;;;;8.40;99.90;;;;;;5077770;28;20018;-94
2023/12/29 09:24:42;;;;;;;;;;;8.30;99.90;;;;;;5088601;28;19920;-94
2023/12/29 09:27:08;;;;;;;;;;;8.40;99.90;;;;;;5096979;28;20549;-96
2023/12/29 09:29:34;;;;;;;;;;;8.50;99.90;;;;;;5090237;28;20057;-92
2023/12/29 09:32:00;;;;;;;;;;;8.50;99.90;;;;;;5075775;28;20306;-95
2023/12/29 09:34:25;;;;;;;;;;;8.60;99.90;;;;;;5104564;28;20014;-94
2023/12/29 09:36:51;;;;;;;;;;;8.60;99.90;;;;;;5072719;28;20326;-94
2023/12/29 09:39:17;;;;;;;;;;;8.70;99.90;;;;;;5080034;28;19928;-92
2023/12/29 09:41:45;;;;;;;;;;;8.70;99.90;;;;;;5086945;28;19945;-92
2023/12/29 09:44:15;;;;;;;;;;;8.70;99.90;;;;;;5084882;28;19938;-95
2023/12/29 09:46:41;;;;;;;;;;;8.70;99.90;;;;;;5097740;28;20352;-89
2023/12/29 09:49:07;;;;;;;;;;;8.80;99.90;;;;;;5105400;28;19924;-92
2023/12/29 09:51:33;;;;;;;;;;;8.80;99.90;;;;;;5079859;28;19942;-94
2023/12/29 09:53:59;;;;;;;;;;;8.80;99.90;;;;;;5091302;28;20222;-92
2023/12/29 09:56:25;;;;;;;;;;;8.90;99.90;;;;;;5108215;28;20057;-93
2023/12/29 09:58:51;;;;;;;;;;;8.90;99.90;;;;;;5069329;28;20094;-91
2023/12/29 10:01:21;;;;;;;;;;;8.90;99.90;;;;;;5121262;27;20287;-95
2023/12/29 10:03:47;;;;;;;;;;;8.90;99.90;;;;;;5094827;28;19920;-92
2023/12/29 10:06:13;;;;;;;;;;;8.90;99.90;;;;;;5080362;27;19991;-92
2023/12/29 10:08:43;;;;;;;;;;;8.90;99.90;;;;;;5094256;28;20000;-93
2023/12/29 10:11:10;;;;;;;;;;;8.90;99.90;;;;;;5089102;28;20372;-93
2023/12/29 10:13:36;;;;;;;;;;;9.00;99.90;;;;;;5135665;27;19923;-94
2023/12/29 10:16:05;;;;;;;;;;;9.00;99.90;;;;;;5089155;28;19927;-94
2023/12/29 10:18:41;;;;;;;;;;;9.00;99.90;;;;;;5103740;28;19923;-94
2023/12/29 10:21:21;;;;;;;;;;;9.10;99.90;;;;;;5117195;27;19920;-94
2023/12/29 10:23:49;;;;;;;;;;;9.10;99.90;;;;;;5119710;27;19920;-94
2023/12/29 10:26:15;;;;;;;;;;;9.10;99.90;;;;;;5087237;28;20332;-93
2023/12/29 10:28:41;;;;;;;;;;;9.10;99.90;;;;;;5083461;28;20009;-93
2023/12/29 10:31:09;;;;;;;;;;;9.10;99.90;;;;;;5098348;28;20341;-92
2023/12/29 10:33:35;;;;;;;;;;;9.10;99.90;;;;;;5089606;28;20345;-93
2023/12/29 10:36:07;;;;;;;;;;;9.10;99.90;;;;;;5078217;28;19928;-94
2023/12/29 10:38:32;;;;;;;;;;;9.10;99.90;;;;;;5088815;28;20352;-91
2023/12/29 10:41:14;;;;;;;;;;;9.10;99.90;;;;;;5077476;28;19982;-91
2023/12/29 10:43:43;;;;;;;;;;;9.10;99.90;;;;;;5083522;28;19959;-93
2023/12/29 10:46:10;;;;;;;;;;;9.10;99.90;;;;;;5086777;28;19956;-88
2023/12/29 10:48:36;;;;;;;;;;;9.10;99.90;;;;;;5090720;28;20109;-92
2023/12/29 10:51:05;;;;;;;;;;;9.10;99.90;;;;;;5092457;28;19924;-93
2023/12/29 10:53:34;;;;;;;;;;;9.00;99.90;;;;;;5099039;28;19923;-88
2023/12/29 10:56:00;;;;;;;;;;;9.00;99.90;;;;;;5084847;28;19928;-91
2023/12/29 10:58:29;;;;;;;;;;;8.90;99.90;;;;;;5085669;28;19928;-90
2023/12/29 11:00:59;;;;;;;;;;;9.00;99.90;;;;;;5084283;28;20348;-92
2023/12/29 11:03:25;;;;;;;;;;;9.00;99.90;;;;;;5082554;28;19924;-90
2023/12/29 11:05:58;;;;;;;;;;;8.90;99.90;;;;;;5111022;28;19976;-92
2023/12/29 11:08:23;;;;;;;;;;;8.90;99.90;;;;;;5084644;28;19954;-92
2023/12/29 11:10:49;;;;;;;;;;;8.90;99.90;;;;;;5077574;28;19977;-92
2023/12/29 11:13:15;;;;;;;;;;;8.90;99.90;;;;;;5101858;28;19927;-92
2023/12/29 11:15:42;;;;;;;;;;;8.80;99.90;;;;;;5081832;28;20260;-93
2023/12/29 11:18:09;;;;;;;;;;;8.80;99.90;;;;;;5067046;28;19927;-90
2023/12/29 11:20:35;;;;;;;;;;;8.90;99.90;;;;;;5078189;28;20318;-89
2023/12/29 11:23:01;;;;;;;;;;;9.00;99.90;;;;;;5105348;28;20125;-94
2023/12/29 11:25:27;;;;;;;;;;;8.90;99.90;;;;;;5065533;28;19963;-93
2023/12/29 11:27:54;;;;;;;;;;;8.80;99.90;;;;;;5089850;28;19919;-94
2023/12/29 11:30:20;;;;;;;;;;;8.80;99.90;;;;;;5091108;28;19924;-88
2023/12/29 11:33:02;;;;;;;;;;;8.80;99.90;;;;;;5102168;28;19924;-94
2023/12/29 11:35:38;;;;;;;;;;;8.80;99.90;;;;;;5087596;28;19920;-91
2023/12/29 11:38:10;;;;;;;;;;;8.80;99.90;;;;;;5086577;28;20319;-94
2023/12/29 11:40:55;;;;;;;;;;;8.90;99.90;;;;;;5114451;27;19939;-93
2023/12/29 11:43:20;;;;;;;;;;;8.90;99.90;;;;;;5079848;28;19920;-93
2023/12/29 11:45:46;;;;;;;;;;;8.80;99.90;;;;;;5093849;28;19920;-95
2023/12/29 11:48:12;;;;;;;;;;;8.80;99.90;;;;;;5092614;28;20259;-93
2023/12/29 11:50:42;;;;;;;;;;;8.70;99.90;;;;;;5102624;28;20284;-91
2023/12/29 11:53:08;;;;;;;;;;;8.70;99.90;;;;;;5085027;28;19945;-91
2023/12/29 11:55:38;;;;;;;;;;;8.70;99.90;;;;;;5110935;28;19920;-93
2023/12/29 11:58:22;;;;;;;;;;;8.70;99.90;;;;;;5102717;28;20017;-93
2023/12/29 12:00:48;;;;;;;;;;;8.80;99.90;;;;;;5082775;28;20010;-91
2023/12/29 12:03:28;;;;;;;;;;;8.90;99.90;;;;;;5123452;27;20069;-91
2023/12/29 12:05:56;;;;;;;;;;;9.10;99.90;;;;;;5099205;28;19920;-91
2023/12/29 12:08:34;;;;;;;;;;;9.20;99.90;;;;;;5106950;28;19920;-90
2023/12/29 12:11:19;;;;;;;;;;;9.20;99.90;;;;;;5090342;28;19978;-88
2023/12/29 12:13:45;;;;;;;;;;;9.30;99.90;;;;;;5134119;27;20055;-90
2023/12/29 12:16:29;;;;;;;;;;;9.40;99.90;;;;;;5099675;27;19920;-90
2023/12/29 12:18:55;;;;;;;;;;;9.50;99.90;;;;;;5104100;28;20009;-89
2023/12/29 12:21:22;;;;;;;;;;;;;;;;;;5082746;28;19920;-93
2023/12/29 12:23:48;;;;;;;;;;;9.60;99.90;;;;;;5106827;28;19931;-92
2023/12/29 12:26:13;;;;;;;;;;;9.50;99.90;;;;;;5080483;28;20360;-87
2023/12/29 12:28:43;;;;;;;;;;;9.40;99.90;;;;;;5104510;28;19920;-91
2023/12/29 12:31:12;;;;;;;;;;;9.30;99.90;;;;;;5113940;28;20444;-91
2023/12/29 12:33:38;;;;;;;;;;;9.20;99.90;;;;;;5096621;28;19920;-89
2023/12/29 12:36:04;;;;;;;;;;;9.10;99.90;;;;;;5097967;28;19931;-87
2023/12/29 12:38:31;;;;;;;;;;;9.00;99.90;;;;;;5109022;28;20398;-90
2023/12/29 12:40:57;;;;;;;;;;;9.00;99.90;;;;;;5132208;27;19920;-90
2023/12/29 12:43:25;;;;;;;;;;;8.90;99.90;;;;;;5100915;28;20261;-89
2023/12/29 12:45:55;;;;;;;;;;;9.00;99.90;;;;;;5091968;28;19926;-88
2023/12/29 12:48:28;;;;;;;;;;;8.90;99.90;;;;;;5090883;28;20387;-90
2023/12/29 12:50:56;;;;;;;;;;;8.90;99.90;;;;;;5089638;28;20008;-91
2023/12/29 12:53:23;;;;;;;;;;;8.90;99.90;;;;;;5116915;27;19920;-91
2023/12/29 12:55:52;;;;;;;;;;;8.70;99.90;;;;;;5103352;28;19954;-89
2023/12/29 12:58:18;;;;;;;;;;;8.60;99.90;;;;;;5092635;28;19920;-90
2023/12/29 13:00:45;;;;;;;;;;;8.60;99.90;;;;;;5083304;28;19973;-89
2023/12/29 13:03:11;;;;;;;;;;;8.50;99.90;;;;;;5103511;28;19928;-90
2023/12/29 13:05:37;;;;;;;;;;;8.50;99.90;;;;;;5074197;28;20274;-88
2023/12/29 13:08:03;;;;;;;;;;;8.40;99.90;;;;;;5115593;27;20488;-88
2023/12/29 13:10:30;;;;;;;;;;;8.40;99.90;;;;;;5121276;27;19923;-91
2023/12/29 13:12:55;;;;;;;;;;;8.40;99.90;;;;;;5090479;28;20348;-90
2023/12/29 13:15:21;;;;;;;;;;;8.40;99.90;;;;;;5086969;28;19938;-91
2023/12/29 13:17:51;;;;;;;;;;;8.30;99.90;;;;;;5104761;28;19923;-89
2023/12/29 13:20:16;;;;;;;;;;;8.30;99.90;;;;;;5086520;28;19985;-91
2023/12/29 13:22:42;;;;;;;;;;;8.30;99.90;;;;;;5084978;28;19971;-90
2023/12/29 13:25:09;;;;;;;;;;;8.20;99.90;;;;;;5105281;28;19930;-90
2023/12/29 13:27:37;;;;;;;;;;;8.20;99.90;;;;;;5122860;27;20007;-90
2023/12/29 13:30:03;;;;;;;;;;;8.20;99.90;;;;;;5109026;27;19924;-90
2023/12/29 13:32:29;;;;;;;;;;;8.20;99.90;;;;;;5096012;28;19928;-87
2023/12/29 13:35:01;;;;;;;;;;;8.20;99.90;;;;;;5090930;28;19928;-88
2023/12/29 13:37:27;;;;;;;;;;;8.10;99.90;;;;;;5108704;28;19920;-92
2023/12/29 13:39:56;;;;;;;;;;;8.20;99.90;;;;;;5140349;27;19935;-89
2023/12/29 13:42:23;;;;;;;;;;;8.20;99.90;;;;;;5089071;28;20320;-90
2023/12/29 13:44:50;;;;;;;;;;;8.20;99.90;;;;;;5110323;28;19928;-92
2023/12/29 13:47:16;;;;;;;;;;;8.20;99.90;;;;;;5089585;28;19931;-89
2023/12/29 13:49:42;;;;;;;;;;;8.20;99.90;;;;;;5123343;27;19928;-90
2023/12/29 13:52:08;;;;;;;;;;;8.20;99.90;;;;;;5102164;28;19931;-92
2023/12/29 13:54:41;;;;;;;;;;;8.10;99.90;;;;;;5082434;28;19924;-89
2023/12/29 13:57:07;;;;;;;;;;;8.20;99.90;;;;;;5080354;28;20314;-90
2023/12/29 13:59:33;;;;;;;;;;;8.10;99.90;;;;;;5100121;28;19955;-88
2023/12/29 14:01:59;;;;;;;;;;;8.10;99.90;;;;;;5114587;27;19943;-91
2023/12/29 14:04:25;;;;;;;;;;;8.10;99.90;;;;;;5107565;28;19920;-89
2023/12/29 14:06:59;;;;;;;;;;;8.00;99.90;;;;;;5084571;28;20340;-89
2023/12/29 14:09:24;;;;;;;;;;;8.00;99.90;;;;;;5092690;28;19953;-89
2023/12/29 14:11:51;;;;;;;;;;;7.90;99.90;;;;;;5083449;28;19920;-89
2023/12/29 14:14:24;;;;;;;;;;;8.00;99.90;;;;;;5128575;27;20069;-88
2023/12/29 14:16:50;;;;;;;;;;;8.00;99.90;;;;;;5098088;28;19962;-89
2023/12/29 14:19:16;;;;;;;;;;;8.00;99.90;;;;;;5071609;28;20321;-87
2023/12/29 14:21:42;;;;;;;;;;;8.00;99.90;;;;;;5077441;28;19920;-89
2023/12/29 14:24:09;;;;;;;;;;;8.00;99.90;;;;;;5086722;28;19924;-89
2023/12/29 14:26:35;;;;;;;;;;;8.10;99.90;;;;;;5099756;28;19981;-90
2023/12/29 14:29:05;;;;;;;;;;;8.10;99.90;;;;;;5117225;27;19920;-91